Time;durP1;ratioP1;P1;durP2;ratioP2;P2;SDS_P1;SDS_P2;PMS_P1;PMS_P2;Temp;Humidity;BMP_temperature;BMP_pressure;BME280_temperature;BME280_humidity;BME280_pressure;Samples;Min_cycle;Max_cycle;Signal;HPM_P1;HPM_P2
2022/05/31 00:00:41;;;;;;;6.65;6.05;;;;;;;28.45;48.65;101619.00;4183999;28;20044;-65
2022/05/31 00:02:43;;;;;;;6.88;6.28;;;;;;;28.45;48.73;101621.81;4182777;28;20098;-66
2022/05/31 00:04:48;;;;;;;7.75;6.50;;;;;;;28.40;48.62;101605.03;4184126;28;20041;-65
2022/05/31 00:06:50;;;;;;;7.47;6.75;;;;;;;28.45;48.58;101607.72;4171830;28;20118;-66
2022/05/31 00:08:52;;;;;;;7.80;6.97;;;;;;;28.42;48.87;101614.03;4167710;28;20088;-65
2022/05/31 00:10:58;;;;;;;7.10;6.38;;;;;;;28.44;48.63;101612.53;4171967;28;20534;-64
2022/05/31 00:12:59;;;;;;;7.07;6.38;;;;;;;28.45;48.34;101621.81;4183705;28;20037;-65
2022/05/31 00:15:01;;;;;;;6.85;6.25;;;;;;;28.44;48.73;101617.34;4176197;28;20033;-65
2022/05/31 00:17:03;;;;;;;7.22;6.53;;;;;;;28.38;48.42;101604.53;4177138;28;20052;-65
2022/05/31 00:19:05;;;;;;;6.80;6.15;;;;;;;28.44;48.56;101617.34;4183937;28;20067;-65
2022/05/31 00:21:07;;;;;;;6.70;6.10;;;;;;;28.45;48.87;101617.00;4179307;28;20116;-64
2022/05/31 00:23:09;;;;;;;6.68;6.07;;;;;;;28.44;48.69;101622.97;4183888;28;20045;-65
2022/05/31 00:25:12;;;;;;;6.97;6.28;;;;;;;28.43;48.71;101615.69;4172842;28;20041;-65
2022/05/31 00:27:17;;;;;;;6.57;5.97;;;;;;;28.43;48.48;101615.69;4189110;28;20090;-65
2022/05/31 00:29:22;;;;;;;6.93;6.32;;;;;;;28.42;48.46;101622.47;4191314;28;20033;-65
2022/05/31 00:31:23;;;;;;;7.40;6.53;;;;;;;28.43;48.52;101627.78;4165820;28;20439;-65
2022/05/31 00:33:32;;;;;;;7.15;6.45;;;;;;;28.41;48.69;101623.59;4165616;28;20118;-65
2022/05/31 00:35:44;;;;;;;7.65;6.40;;;;;;;28.43;48.78;101643.81;4166859;28;20079;-65
2022/05/31 00:37:46;;;;;;;8.23;6.80;;;;;;;28.39;48.75;101632.34;4166114;28;20041;-65
2022/05/31 00:39:53;;;;;;;7.03;6.22;;;;;;;28.42;48.97;101653.44;4166366;28;20041;-65
2022/05/31 00:42:19;;;;;;;8.40;6.20;;;;;;;28.35;48.73;101632.16;4166609;28;20103;-65
2022/05/31 00:44:26;;;;;;;7.72;6.20;;;;;;;28.45;48.73;101642.34;4166848;28;20083;-65
2022/05/31 00:46:34;;;;;;;11.30;6.28;;;;;;;28.44;48.66;101634.22;4165375;28;20057;-65
2022/05/31 00:48:42;;;;;;;8.85;6.43;;;;;;;28.45;48.44;101641.50;4166646;28;20041;-65
2022/05/31 00:50:50;;;;;;;6.95;6.25;;;;;;;28.40;48.61;101636.00;4167156;28;20034;-65
2022/05/31 00:52:56;;;;;;;9.07;7.03;;;;;;;28.45;48.69;101635.88;4165867;28;20037;-65
2022/05/31 00:55:07;;;;;;;7.63;6.05;;;;;;;28.41;48.72;101635.72;4170631;28;20092;-65
2022/05/31 00:57:10;;;;;;;6.72;5.72;;;;;;;28.45;48.93;101647.16;4182580;28;20044;-65
2022/05/31 00:59:16;;;;;;;8.95;6.47;;;;;;;28.44;48.97;101640.69;4165600;28;20464;-65
2022/05/31 01:01:18;;;;;;;7.35;5.90;;;;;;;28.44;48.68;101648.31;4182547;28;20041;-65
2022/05/31 01:03:22;;;;;;;7.75;6.97;;;;;;;28.44;48.54;101668.00;4166610;28;20041;-65
2022/05/31 01:05:24;;;;;;;10.97;6.23;;;;;;;28.45;48.65;101658.41;4165937;28;20075;-65
2022/05/31 01:07:26;;;;;;;7.40;6.65;;;;;;;28.44;48.72;101668.00;4165781;28;20045;-65
2022/05/31 01:09:31;;;;;;;8.23;6.10;;;;;;;28.38;48.70;101655.19;4160975;28;20037;-65
2022/05/31 01:11:38;;;;;;;9.30;6.85;;;;;;;28.45;48.53;101664.03;4166472;28;20468;-65
2022/05/31 01:13:42;;;;;;;6.00;5.50;;;;;;;28.44;48.82;101668.00;4148992;28;20112;-65
2022/05/31 01:15:50;;;;;;;7.00;5.85;;;;;;;28.44;48.62;101665.19;4166317;28;20049;-64
2022/05/31 01:17:51;;;;;;;8.38;6.57;;;;;;;28.45;48.67;101655.59;4165500;28;20095;-65
2022/05/31 01:19:57;;;;;;;9.68;7.07;;;;;;;28.44;49.04;101656.75;4165462;28;20041;-65
2022/05/31 01:21:58;;;;;;;7.80;6.57;;;;;;;28.45;48.63;101661.22;4166161;28;20045;-65
2022/05/31 01:24:13;;;;;;;7.53;5.85;;;;;;;28.39;48.85;101659.69;4164368;28;20037;-65
2022/05/31 01:26:40;;;;;;;7.68;6.28;;;;;;;28.41;48.76;101666.69;4165935;28;20091;-65
2022/05/31 01:28:42;;;;;;;7.95;6.70;;;;;;;28.44;48.66;101666.03;4165926;28;20033;-65
2022/05/31 01:30:52;;;;;;;6.43;5.82;;;;;;;28.40;48.38;101650.06;4165880;28;20484;-65
2022/05/31 01:33:03;;;;;;;6.80;6.18;;;;;;;28.41;48.38;101663.00;4165573;28;20107;-65
2022/05/31 01:35:17;;;;;;;8.20;6.53;;;;;;;28.42;48.70;101668.34;4166030;28;20049;-65
2022/05/31 01:37:27;;;;;;;7.28;6.57;;;;;;;28.44;48.62;101668.00;4165259;28;20045;-65
2022/05/31 01:39:43;;;;;;;7.70;6.25;;;;;;;28.44;48.69;101668.84;4165535;28;20443;-65
2022/05/31 01:42:19;;;;;;;7.10;6.22;;;;;;;28.42;48.87;101664.69;4165982;28;20095;-65
2022/05/31 01:44:24;;;;;;;7.10;6.40;;;;;;;28.45;48.66;101669.66;4146563;28;20530;-64
2022/05/31 01:46:34;;;;;;;6.90;6.30;;;;;;;28.44;48.84;101660.38;4165065;28;20043;-65
2022/05/31 01:48:43;;;;;;;6.65;6.05;;;;;;;28.45;48.69;101658.41;4165888;28;20103;-65
2022/05/31 01:50:48;;;;;;;6.45;5.85;;;;;;;28.44;48.71;101657.56;4165359;28;20041;-65
2022/05/31 01:52:51;;;;;;;6.32;5.72;;;;;;;28.43;48.75;101661.53;4164874;28;20060;-65
2022/05/31 01:54:53;;;;;;;6.78;6.07;;;;;;;28.44;48.87;101668.00;4166008;28;20366;-65
2022/05/31 01:57:01;;;;;;;6.95;6.28;;;;;;;28.43;48.82;101672.81;4164881;28;20103;-65
2022/05/31 01:59:07;;;;;;;7.88;6.50;;;;;;;28.36;48.52;101656.34;4165026;28;20092;-64
2022/05/31 02:01:12;;;;;;;6.82;6.13;;;;;;;28.35;48.52;101659.47;4165445;28;20063;-65
2022/05/31 02:03:17;;;;;;;7.82;6.32;;;;;;;28.43;48.54;101671.97;4162743;28;20547;-65
2022/05/31 02:05:22;;;;;;;6.32;5.70;;;;;;;28.43;48.74;101677.59;4164642;28;20091;-64
2022/05/31 02:07:26;;;;;;;7.40;6.70;;;;;;;28.43;48.60;101664.38;4164461;28;20405;-65
2022/05/31 02:09:27;;;;;;;7.43;6.28;;;;;;;28.42;48.74;101670.31;4163616;28;20049;-64
2022/05/31 02:11:29;;;;;;;6.65;5.72;;;;;;;28.42;49.11;101673.97;4165382;28;20096;-65
2022/05/31 02:13:30;;;;;;;6.97;6.28;;;;;;;28.42;48.81;101670.31;4167150;28;20117;-64
2022/05/31 02:15:33;;;;;;;6.63;5.97;;;;;;;28.43;48.71;101669.16;4174415;28;20432;-65
2022/05/31 02:17:34;;;;;;;6.50;5.80;;;;;;;28.42;48.69;101676.78;4187972;28;20090;-64
2022/05/31 02:19:36;;;;;;;6.47;5.75;;;;;;;28.42;49.13;101675.94;4192787;28;20045;-64
2022/05/31 02:21:37;;;;;;;7.25;6.63;;;;;;;28.41;48.65;101675.13;4181467;28;20033;-64
2022/05/31 02:23:39;;;;;;;6.72;6.10;;;;;;;28.43;48.60;101674.78;4179694;28;20098;-64
2022/05/31 02:25:43;;;;;;;6.18;5.57;;;;;;;28.42;48.81;101681.59;4171553;28;20557;-65
2022/05/31 02:27:45;;;;;;;6.72;5.82;;;;;;;28.41;48.77;101674.25;4191336;28;20465;-64
2022/05/31 02:29:46;;;;;;;6.63;5.90;;;;;;;28.43;48.57;101688.88;4181308;28;20546;-64
2022/05/31 02:31:49;;;;;;;6.32;5.72;;;;;;;28.42;48.58;101681.59;4181847;28;20106;-64
2022/05/31 02:33:50;;;;;;;6.50;5.78;;;;;;;28.40;48.84;101679.06;4181530;28;20091;-64
2022/05/31 02:35:51;;;;;;;6.65;6.00;;;;;;;28.42;48.70;101681.59;4181557;28;20190;-64
2022/05/31 02:37:53;;;;;;;6.95;6.25;;;;;;;28.39;48.97;101676.56;4180917;28;20067;-64
2022/05/31 02:39:54;;;;;;;8.25;6.65;;;;;;;28.41;48.62;101679.88;4164168;28;20095;-64
2022/05/31 02:41:56;;;;;;;6.10;5.50;;;;;;;28.42;48.82;101687.22;4169850;28;20119;-64
2022/05/31 02:43:58;;;;;;;6.70;6.05;;;;;;;28.39;49.14;101680.22;4164678;28;20042;-64
2022/05/31 02:46:00;;;;;;;7.63;6.18;;;;;;;28.43;48.91;101688.88;4164903;28;20095;-64
2022/05/31 02:48:05;;;;;;;7.47;6.75;;;;;;;28.41;48.74;101686.38;4163985;28;20041;-64
2022/05/31 02:50:07;;;;;;;6.45;5.85;;;;;;;28.35;48.75;101682.81;4165476;28;20029;-64
2022/05/31 02:52:11;;;;;;;7.38;6.68;;;;;;;28.42;48.95;101687.22;4164614;28;20037;-64
2022/05/31 02:54:15;;;;;;;6.28;5.68;;;;;;;28.42;48.92;101690.03;4164292;28;20038;-64
2022/05/31 02:56:17;;;;;;;18.33;6.97;;;;;;;28.42;48.71;101690.84;4164358;28;20045;-64
2022/05/31 02:58:18;;;;;;;20.05;6.57;;;;;;;28.40;48.94;101689.50;4158435;28;20071;-64
2022/05/31 03:00:19;;;;;;;16.38;6.53;;;;;;;28.41;48.79;101693.97;4164483;28;20041;-64
2022/05/31 03:02:24;;;;;;;13.73;6.28;;;;;;;28.41;49.13;101688.34;4164500;28;20091;-65
2022/05/31 03:04:25;;;;;;;11.75;7.43;;;;;;;28.40;48.85;101684.69;4172327;28;20071;-64
2022/05/31 03:06:26;;;;;;;9.10;6.75;;;;;;;28.42;49.15;101692.84;4166688;28;20033;-63
2022/05/31 03:08:28;;;;;;;9.68;6.22;;;;;;;28.38;49.06;101680.53;4163362;28;20049;-64
2022/05/31 03:10:33;;;;;;;11.13;6.60;;;;;;;28.41;49.42;101689.19;4168131;28;20030;-63
2022/05/31 03:12:35;;;;;;;12.95;6.65;;;;;;;28.41;49.20;101694.81;4175204;28;20048;-63
2022/05/31 03:14:45;;;;;;;9.45;6.03;;;;;;;28.41;49.38;101693.97;4175485;28;20098;-63
2022/05/31 03:17:10;;;;;;;9.25;6.22;;;;;;;28.41;49.54;101697.63;4175920;28;20110;-64
2022/05/31 03:19:20;;;;;;;13.38;6.70;;;;;;;28.41;49.29;101691.16;4175993;28;20029;-65
2022/05/31 03:21:26;;;;;;;11.43;6.93;;;;;;;28.41;49.25;101689.19;4174811;28;20472;-65
2022/05/31 03:23:40;;;;;;;9.50;6.28;;;;;;;28.41;49.24;101691.16;4163895;28;20091;-65
2022/05/31 03:25:44;;;;;;;11.47;6.37;;;;;;;28.42;49.46;101682.41;4171702;28;20063;-64
2022/05/31 03:27:48;;;;;;;8.82;7.18;;;;;;;28.42;49.50;101673.13;4172121;28;20048;-64
2022/05/31 03:29:52;;;;;;;11.43;6.47;;;;;;;28.41;49.11;101680.75;4173785;28;20033;-64
2022/05/31 03:31:54;;;;;;;;;;;;;;;28.40;49.29;101684.69;4165581;28;21094;-63
2022/05/31 03:33:57;;;;;;;10.18;5.70;;;;;;;28.43;49.33;101677.59;4180687;28;19921;-64
2022/05/31 03:35:59;;;;;;;14.40;5.82;;;;;;;28.44;49.03;101690.53;4173763;28;20436;-65
2022/05/31 03:38:03;;;;;;;8.43;6.03;;;;;;;28.40;49.22;101683.84;4163893;28;20095;-63
2022/05/31 03:40:08;;;;;;;11.20;6.45;;;;;;;28.44;49.14;101698.97;4163010;28;20168;-64
2022/05/31 03:42:09;;;;;;;7.95;5.90;;;;;;;28.42;49.42;101693.66;4164152;28;20436;-64
2022/05/31 03:44:10;;;;;;;8.02;6.25;;;;;;;28.42;49.46;101687.22;4163932;28;20045;-64
2022/05/31 03:46:15;;;;;;;6.60;6.00;;;;;;;28.41;49.12;101689.19;4164587;28;20037;-64
2022/05/31 03:48:17;;;;;;;8.63;6.00;;;;;;;28.40;49.27;101681.03;4171668;28;20041;-65
2022/05/31 03:50:22;;;;;;;12.30;5.75;;;;;;;28.42;49.11;101687.22;4167401;28;20041;-64
2022/05/31 03:52:46;;;;;;;10.93;6.35;;;;;;;28.37;49.58;101676.91;4164518;28;20068;-65
2022/05/31 03:54:50;;;;;;;8.13;5.70;;;;;;;28.41;49.28;101680.75;4164528;28;20034;-65
2022/05/31 03:56:52;;;;;;;7.63;5.93;;;;;;;28.42;49.19;101688.03;4164315;28;20477;-64
2022/05/31 03:58:54;;;;;;;9.18;5.97;;;;;;;28.41;49.20;101689.19;4164147;28;20103;-65
2022/05/31 04:00:58;;;;;;;8.00;5.88;;;;;;;28.41;49.16;101692.00;4164346;28;20095;-65
2022/05/31 04:03:00;;;;;;;6.80;5.65;;;;;;;28.41;49.39;101677.06;4166831;28;20068;-65
2022/05/31 04:05:03;;;;;;;11.77;6.18;;;;;;;28.41;49.45;101677.06;4163055;28;20042;-65
2022/05/31 04:07:04;;;;;;;11.23;6.13;;;;;;;28.41;49.61;101682.69;4146854;28;20058;-65
2022/05/31 04:09:06;;;;;;;6.82;5.93;;;;;;;28.40;49.47;101679.06;4173087;28;20053;-64
2022/05/31 04:11:08;;;;;;;8.40;6.47;;;;;;;28.38;49.64;101684.19;4180461;28;20036;-64
2022/05/31 04:13:10;;;;;;;8.88;6.20;;;;;;;28.38;49.28;101674.91;4180896;28;20044;-65
2022/05/31 04:15:11;;;;;;;11.35;6.38;;;;;;;28.41;49.24;101685.53;4180507;28;20037;-65
2022/05/31 04:17:13;;;;;;;7.85;6.57;;;;;;;28.41;49.46;101685.53;4179789;28;20029;-65
2022/05/31 04:19:15;;;;;;;8.27;5.35;;;;;;;28.31;49.53;101666.84;4180585;28;20049;-65
2022/05/31 04:21:18;;;;;;;9.55;6.30;;;;;;;28.38;49.54;101677.72;4176820;28;20041;-64
2022/05/31 04:25:39;;;;;;;7.55;6.20;;;;;;;28.40;49.45;101678.22;4165751;28;20083;-63
2022/05/31 04:27:40;;;;;;;9.48;5.78;;;;;;;28.40;49.42;101670.63;4163064;28;20054;-62
2022/05/31 04:29:41;;;;;;;9.43;6.45;;;;;;;28.19;49.49;101642.06;4161942;28;20081;-63
2022/05/31 04:31:46;;;;;;;8.38;6.15;;;;;;;28.38;49.69;101675.75;4163552;28;20362;-64
2022/05/31 04:33:47;;;;;;;10.68;6.35;;;;;;;28.40;49.06;101678.22;4161834;28;20041;-63
2022/05/31 04:35:58;;;;;;;9.10;6.22;;;;;;;28.40;49.75;101678.22;4163851;28;20565;-65
2022/05/31 04:37:59;;;;;;;10.63;6.45;;;;;;;28.40;49.66;101673.44;4160774;28;20041;-65
2022/05/31 04:40:00;;;;;;;9.20;6.60;;;;;;;28.39;49.58;101666.13;4164527;28;20075;-65
2022/05/31 04:42:02;;;;;;;8.45;5.90;;;;;;;28.40;49.48;101664.16;4166234;28;20041;-64
2022/05/31 04:44:04;;;;;;;7.00;6.05;;;;;;;28.39;49.36;101654.88;4166788;28;20041;-65
2022/05/31 04:46:14;;;;;;;7.85;5.82;;;;;;;28.38;49.29;101664.47;4166891;28;20107;-64
2022/05/31 04:48:15;;;;;;;8.13;6.10;;;;;;;28.40;49.58;101664.16;4166359;28;20045;-64
2022/05/31 04:50:17;;;;;;;6.82;5.93;;;;;;;28.39;49.92;101660.50;4166831;28;20041;-63
2022/05/31 04:52:18;;;;;;;7.15;6.45;;;;;;;28.39;49.70;101659.69;4166282;28;20091;-63
2022/05/31 04:54:23;;;;;;;7.32;6.60;;;;;;;28.35;49.94;101653.84;4165465;28;20436;-63
2022/05/31 04:56:24;;;;;;;9.18;6.60;;;;;;;28.38;49.62;101653.22;4176833;28;20053;-64
2022/05/31 04:58:25;;;;;;;7.07;6.25;;;;;;;28.39;49.67;101648.41;4179089;28;20068;-64
2022/05/31 05:00:27;;;;;;;10.05;6.75;;;;;;;28.37;49.54;101645.94;4166189;28;20045;-64
2022/05/31 05:02:31;;;;;;;9.48;6.13;;;;;;;28.37;49.72;101643.13;4169145;28;20098;-64
2022/05/31 05:04:36;;;;;;;7.55;6.75;;;;;;;28.37;49.54;101643.13;4183695;28;20083;-64
2022/05/31 05:06:38;;;;;;;6.88;6.10;;;;;;;28.39;49.63;101648.41;4182078;28;20041;-64
2022/05/31 05:08:40;;;;;;;7.00;6.20;;;;;;;28.39;49.57;101648.41;4183400;28;20055;-64
2022/05/31 05:10:53;;;;;;;8.63;6.05;;;;;;;28.38;49.76;101653.22;4167469;28;20511;-64
2022/05/31 05:12:55;;;;;;;8.00;6.30;;;;;;;28.32;49.62;101638.41;4166200;28;20045;-64
2022/05/31 05:14:56;;;;;;;8.40;6.20;;;;;;;28.39;49.97;101651.22;4171785;28;20041;-63
2022/05/31 05:16:58;;;;;;;7.82;5.80;;;;;;;28.40;49.68;101644.44;4182060;28;20357;-64
2022/05/31 05:18:59;;;;;;;8.10;6.28;;;;;;;28.38;49.54;101641.13;4182836;28;20480;-64
2022/05/31 05:21:03;;;;;;;8.13;6.40;;;;;;;28.33;49.49;101633.59;4182616;28;20032;-64
2022/05/31 05:23:07;;;;;;;8.20;6.50;;;;;;;28.32;49.58;101632.78;4182728;28;20431;-64
2022/05/31 05:25:11;;;;;;;7.28;6.28;;;;;;;28.38;49.56;101641.97;4182296;28;20045;-64
2022/05/31 05:27:15;;;;;;;6.40;5.80;;;;;;;28.39;49.96;101642.78;4175609;28;20033;-64
2022/05/31 05:31:40;;;;;;;7.07;5.72;;;;;;;28.39;49.64;101638.00;4167461;28;20107;-64
2022/05/31 05:33:41;;;;;;;7.10;5.90;;;;;;;28.38;49.69;101635.50;4148096;28;20038;-64
2022/05/31 05:35:43;;;;;;;7.05;5.95;;;;;;;28.39;49.67;101637.16;4166142;28;20033;-64
2022/05/31 05:37:45;;;;;;;8.48;5.47;;;;;;;28.38;49.89;101629.88;4165553;28;20045;-64
2022/05/31 05:39:46;;;;;;;6.30;5.70;;;;;;;28.35;49.37;101629.34;4165948;28;20041;-64
2022/05/31 05:41:49;;;;;;;6.53;5.85;;;;;;;28.36;49.85;101633.84;4170248;28;20070;-63
2022/05/31 05:43:54;;;;;;;7.10;5.68;;;;;;;28.38;49.99;101635.50;4165226;28;20440;-63
2022/05/31 05:45:58;;;;;;;6.72;6.03;;;;;;;28.38;50.02;101636.34;4165186;28;20041;-63
2022/05/31 05:47:59;;;;;;;6.22;5.63;;;;;;;28.39;49.47;101642.78;4170985;28;20477;-63
2022/05/31 05:50:01;;;;;;;7.70;6.88;;;;;;;28.38;49.52;101641.13;4177642;28;20471;-64
2022/05/31 05:52:08;;;;;;;7.13;6.00;;;;;;;28.39;49.74;101642.78;4180432;28;20385;-64
2022/05/31 05:54:09;;;;;;;6.25;5.43;;;;;;;28.36;49.56;101639.47;4180093;28;20098;-64
2022/05/31 05:56:11;;;;;;;6.70;5.60;;;;;;;28.38;49.43;101641.13;4176586;28;20041;-64
2022/05/31 05:58:13;;;;;;;7.03;5.80;;;;;;;28.38;49.78;101646.75;4164646;28;20092;-64
2022/05/31 06:00:20;;;;;;;7.57;5.97;;;;;;;28.38;49.64;101655.19;4167768;28;20045;-64
2022/05/31 06:02:29;;;;;;;7.07;6.35;;;;;;;28.38;49.92;101649.56;4181821;28;20566;-64
2022/05/31 06:04:38;;;;;;;6.70;6.07;;;;;;;28.36;49.28;101656.34;4182215;28;20443;-64
2022/05/31 06:06:42;;;;;;;8.48;6.85;;;;;;;28.36;49.56;101642.28;4165824;28;20045;-64
2022/05/31 06:08:50;;;;;;;6.78;6.18;;;;;;;28.36;49.76;101639.47;4172360;28;20424;-64
2022/05/31 06:11:20;;;;;;;6.03;5.43;;;;;;;28.34;49.14;101641.75;4176748;28;20455;-64
2022/05/31 06:13:26;;;;;;;6.70;6.05;;;;;;;28.32;49.24;101641.22;4164606;28;20042;-64
2022/05/31 06:15:35;;;;;;;6.45;5.75;;;;;;;28.34;49.42;101646.53;4168858;28;20032;-65
2022/05/31 06:17:44;;;;;;;6.45;5.35;;;;;;;28.34;49.33;101658.63;4181323;28;20071;-64
2022/05/31 06:19:49;;;;;;;6.35;5.75;;;;;;;28.35;49.70;101649.03;4181605;28;20483;-64
2022/05/31 06:21:51;;;;;;;6.60;5.97;;;;;;;28.34;49.65;101658.63;4179417;28;20037;-65
2022/05/31 06:23:55;;;;;;;8.32;6.10;;;;;;;28.34;49.53;101641.75;4165292;28;20033;-64
2022/05/31 06:25:57;;;;;;;6.38;5.78;;;;;;;28.35;49.41;101643.41;4165369;28;20049;-64
2022/05/31 06:27:59;;;;;;;8.23;6.15;;;;;;;28.34;49.43;101641.75;4171069;28;20099;-64
2022/05/31 06:30:04;;;;;;;6.28;5.10;;;;;;;28.30;49.28;101635.06;4182221;28;20083;-64
2022/05/31 06:32:06;;;;;;;7.40;5.75;;;;;;;28.33;49.49;101628.81;4170657;28;20098;-64
2022/05/31 06:34:07;;;;;;;6.40;5.68;;;;;;;28.32;49.33;101627.13;4164597;28;20045;-65
2022/05/31 06:36:11;;;;;;;6.03;5.43;;;;;;;28.32;49.39;101627.13;4176614;28;20558;-64
2022/05/31 06:38:16;;;;;;;8.55;6.00;;;;;;;28.32;49.08;101621.50;4164417;28;20444;-64
2022/05/31 06:40:17;;;;;;;;;;;;;;;28.25;49.42;101620.25;4166996;28;21661;-64
2022/05/31 06:42:18;;;;;;;6.03;5.53;;;;;;;28.35;49.36;101618.06;4178839;28;19959;-64
2022/05/31 06:44:22;;;;;;;6.57;5.68;;;;;;;28.35;49.21;101615.25;4164878;28;20558;-64
2022/05/31 06:46:24;;;;;;;6.32;5.57;;;;;;;28.33;49.05;101611.91;4164573;28;20095;-64
2022/05/31 06:48:25;;;;;;;6.75;6.05;;;;;;;28.33;49.34;101611.09;4163747;28;20087;-64
2022/05/31 06:50:27;;;;;;;6.10;5.55;;;;;;;28.29;49.27;101605.25;4165319;28;20034;-64
2022/05/31 06:57:11;;;;;;;6.25;5.55;;;;;;;28.32;49.37;101604.63;4178381;28;20102;-64
2022/05/31 06:59:13;;;;;;;6.00;5.40;;;;;;;28.30;49.71;101598.47;4176867;28;20032;-64
2022/05/31 07:01:15;;;;;;;6.15;5.57;;;;;;;28.32;49.43;101603.78;4168498;28;20049;-64
2022/05/31 07:03:19;;;;;;;5.28;4.78;;;;;;;28.31;49.52;101602.09;4164672;28;20075;-64
2022/05/31 07:05:27;;;;;;;6.05;5.45;;;;;;;28.24;49.52;101591.28;4167404;28;20106;-65
2022/05/31 07:07:28;;;;;;;6.20;5.60;;;;;;;28.31;49.82;101602.09;4178898;28;20032;-64
2022/05/31 07:09:29;;;;;;;6.03;5.45;;;;;;;28.30;49.33;101601.28;4180844;28;20037;-64
2022/05/31 07:11:31;;;;;;;5.85;5.25;;;;;;;28.20;49.61;101581.81;4180132;28;20037;-64
2022/05/31 07:13:35;;;;;;;6.40;5.43;;;;;;;28.28;49.32;101592.31;4151094;28;20421;-64
2022/05/31 07:15:36;;;;;;;6.87;6.00;;;;;;;28.28;49.47;101603.59;4174515;28;20484;-64
2022/05/31 07:17:41;;;;;;;5.75;5.25;;;;;;;28.28;49.64;101595.13;4177475;28;20110;-65
2022/05/31 07:19:42;;;;;;;7.22;5.60;;;;;;;28.27;49.58;101590.66;4171635;28;20103;-64
2022/05/31 07:21:44;;;;;;;6.00;5.40;;;;;;;28.27;49.66;101584.19;4163769;28;20557;-64
2022/05/31 07:23:45;;;;;;;6.10;5.50;;;;;;;28.26;49.49;101588.97;4179122;28;20492;-65
2022/05/31 07:25:52;;;;;;;5.90;5.32;;;;;;;28.24;49.66;101584.84;4179034;28;20099;-65
2022/05/31 07:27:54;;;;;;;6.70;5.93;;;;;;;28.26;49.64;101586.16;4175175;28;20036;-64
2022/05/31 07:29:55;;;;;;;6.00;5.40;;;;;;;28.26;49.66;101600.25;4171159;28;20049;-64
2022/05/31 07:31:57;;;;;;;5.50;4.97;;;;;;;28.24;49.67;101585.66;4172420;28;20037;-64
2022/05/31 07:33:59;;;;;;;6.45;5.85;;;;;;;28.25;49.71;101592.94;4179217;28;20045;-64
2022/05/31 07:36:03;;;;;;;5.45;4.95;;;;;;;28.24;49.68;101591.28;4170671;28;20099;-64
2022/05/31 07:38:04;;;;;;;;;;;;;;;28.23;49.75;101595.25;4167284;28;20067;-64
2022/05/31 07:40:07;;;;;;;6.70;6.03;;;;;;;28.14;49.81;101569.00;4174870;28;19916;-64
2022/05/31 07:42:11;;;;;;;6.22;5.63;;;;;;;28.28;49.40;101588.69;4162783;28;20037;-64
2022/05/31 07:44:14;;;;;;;6.35;5.68;;;;;;;28.26;49.58;101588.97;4167107;28;20037;-64
2022/05/31 07:46:22;;;;;;;5.40;4.90;;;;;;;28.18;49.54;101574.81;4165560;28;20543;-64
2022/05/31 07:48:26;;;;;;;6.45;5.32;;;;;;;28.25;49.52;101592.94;4165519;28;20555;-64
2022/05/31 07:50:30;;;;;;;6.40;5.80;;;;;;;28.23;49.60;101588.81;4170701;28;20036;-64
2022/05/31 07:52:33;;;;;;;6.18;5.60;;;;;;;28.24;49.73;101585.66;4167467;28;20372;-64
2022/05/31 07:54:34;;;;;;;6.30;5.30;;;;;;;28.24;49.65;101582.84;4163600;28;20045;-64
2022/05/31 07:56:35;;;;;;;6.00;5.40;;;;;;;28.23;49.61;101583.19;4175852;28;20033;-64
2022/05/31 07:58:42;;;;;;;6.45;5.80;;;;;;;28.15;49.79;101570.66;4180675;28;20040;-63
2022/05/31 08:00:49;;;;;;;5.60;5.00;;;;;;;28.21;49.65;101579.81;4180109;28;20049;-63
2022/05/31 08:02:50;;;;;;;5.85;5.35;;;;;;;28.21;49.67;101585.44;4181113;28;20079;-64
2022/05/31 08:04:52;;;;;;;5.97;5.38;;;;;;;28.22;49.87;101587.09;4170264;28;20045;-64
2022/05/31 08:06:57;;;;;;;5.95;5.43;;;;;;;28.22;49.60;101584.28;4165116;28;20045;-64
2022/05/31 08:08:59;;;;;;;5.93;5.43;;;;;;;28.19;49.74;101588.59;4166888;28;20508;-65
2022/05/31 08:11:09;;;;;;;6.35;5.75;;;;;;;28.21;49.62;101600.34;4170353;28;20412;-64
2022/05/31 08:13:14;;;;;;;6.07;5.50;;;;;;;28.17;49.61;101585.25;4164423;28;20045;-65
2022/05/31 08:15:15;;;;;;;7.47;5.45;;;;;;;28.01;49.89;101555.78;4178564;28;20036;-65
2022/05/31 08:17:17;;;;;;;6.20;5.60;;;;;;;28.22;49.69;101587.09;4181643;28;20037;-66
2022/05/31 08:19:23;;;;;;;5.38;4.88;;;;;;;28.22;49.67;101585.13;4181009;28;20042;-64
2022/05/31 08:21:29;;;;;;;6.55;5.90;;;;;;;28.17;49.76;101568.34;4183423;28;20041;-65
2022/05/31 08:23:31;;;;;;;7.70;5.82;;;;;;;28.13;49.70;101561.69;4175149;28;20041;-65
2022/05/31 08:25:38;;;;;;;6.55;5.95;;;;;;;28.21;49.58;101583.47;4171550;28;20049;-65
2022/05/31 08:27:39;;;;;;;5.95;5.35;;;;;;;28.21;49.60;101577.84;4172898;28;20046;-64
2022/05/31 08:29:41;;;;;;;6.93;5.47;;;;;;;28.21;49.63;101577.84;4167254;28;20107;-64
2022/05/31 08:31:45;;;;;;;5.65;5.13;;;;;;;28.20;49.63;101578.16;4167046;28;20103;-65
2022/05/31 08:33:47;;;;;;;6.00;5.50;;;;;;;28.20;49.93;101584.63;4166693;28;20084;-64
2022/05/31 08:35:48;;;;;;;5.68;5.18;;;;;;;28.21;49.65;101585.44;4179269;28;20024;-65
2022/05/31 08:37:49;;;;;;;6.47;5.47;;;;;;;28.20;49.40;101586.59;4171671;28;20049;-65
2022/05/31 08:39:51;;;;;;;5.53;4.95;;;;;;;28.16;49.86;101577.97;4173772;28;20083;-65
2022/05/31 08:42:09;;;;;;;6.10;5.47;;;;;;;28.18;49.71;101581.31;4179268;28;20053;-64
2022/05/31 08:44:19;;;;;;;5.90;5.13;;;;;;;28.20;49.67;101584.63;4169257;28;20041;-65
2022/05/31 08:46:58;;;;;;;6.15;5.57;;;;;;;28.19;49.71;101588.59;4177780;28;20103;-65
2022/05/31 08:49:10;;;;;;;5.40;4.90;;;;;;;28.20;49.67;101584.63;4175806;28;20504;-65
2022/05/31 08:53:40;;;;;;;5.43;4.93;;;;;;;28.19;49.70;101580.16;4167504;28;20059;-65
2022/05/31 08:58:34;;;;;;;6.20;5.60;;;;;;;28.20;49.46;101584.63;4184220;28;20087;-65
2022/05/31 09:00:41;;;;;;;6.63;5.82;;;;;;;28.19;49.80;101580.16;4174350;28;20558;-65
2022/05/31 09:02:58;;;;;;;6.10;5.50;;;;;;;28.20;49.53;101584.63;4181131;28;20499;-65
2022/05/31 09:05:08;;;;;;;6.05;5.55;;;;;;;28.19;49.63;101580.16;4181640;28;20447;-65
2022/05/31 09:07:25;;;;;;;5.55;5.05;;;;;;;28.18;49.38;101575.69;4153029;28;20046;-65
2022/05/31 09:09:51;;;;;;;5.70;5.20;;;;;;;28.16;49.68;101577.97;4170319;28;20048;-65
2022/05/31 09:11:54;;;;;;;5.30;4.90;;;;;;;28.19;49.69;101577.34;4175374;28;20029;-65
2022/05/31 09:14:16;;;;;;;5.63;5.13;;;;;;;28.17;49.64;101574.00;4173664;28;20119;-65
2022/05/31 09:16:40;;;;;;;5.50;5.00;;;;;;;28.18;49.72;101572.00;4173556;28;20041;-65
2022/05/31 09:18:47;;;;;;;5.88;5.28;;;;;;;28.20;49.54;101576.19;4177783;28;20037;-65
2022/05/31 09:20:56;;;;;;;6.30;5.70;;;;;;;28.18;49.81;101570.06;4166838;28;20087;-65
2022/05/31 09:22:57;;;;;;;5.45;4.95;;;;;;;28.20;49.41;101572.53;4175672;28;20041;-65
2022/05/31 09:25:00;;;;;;;5.85;5.13;;;;;;;28.17;49.62;101571.19;4168280;28;20446;-65
2022/05/31 09:27:19;;;;;;;5.53;5.03;;;;;;;28.17;49.32;101574.00;4170387;28;20106;-65
2022/05/31 09:29:22;;;;;;;5.90;5.32;;;;;;;28.17;49.65;101570.34;4178053;28;20044;-65
2022/05/31 09:31:55;;;;;;;5.10;4.70;;;;;;;28.15;49.50;101576.28;4173979;28;20448;-65
2022/05/31 09:34:23;;;;;;;6.97;5.78;;;;;;;28.16;49.69;101566.69;4165088;28;20115;-64
2022/05/31 09:37:03;;;;;;;5.78;5.25;;;;;;;28.15;49.43;101567.84;4166008;28;20037;-65
2022/05/31 09:39:21;;;;;;;5.78;5.28;;;;;;;28.17;49.63;101574.00;4151733;28;20092;-65
2022/05/31 09:41:52;;;;;;;5.22;4.80;;;;;;;28.15;49.46;101570.66;4165556;28;20443;-65
2022/05/31 09:44:19;;;;;;;5.97;5.47;;;;;;;28.18;49.42;101569.19;4164166;28;20033;-65
2022/05/31 09:46:38;;;;;;;5.72;5.22;;;;;;;28.17;49.43;101567.53;4152416;28;20045;-65
2022/05/31 09:48:51;;;;;;;6.20;5.60;;;;;;;28.17;49.47;101564.72;4163976;28;20496;-65
2022/05/31 09:51:03;;;;;;;5.65;5.15;;;;;;;28.18;49.43;101563.56;4163619;28;20087;-64
2022/05/31 09:57:05;;;;;;;5.82;5.22;;;;;;;28.16;49.66;101565.88;4165623;28;20107;-65
2022/05/31 09:58:12;;;;;;;5.60;5.10;;;;;;;28.18;49.42;101570.06;4168145;28;20543;-65
2022/05/31 10:00:19;;;;;;;5.65;5.15;;;;;;;28.12;49.47;101560.03;4180319;28;20504;-65